sensor_id;sensor_type;location;lat;lon;timestamp;P1;durP1;ratioP1;P2;durP2;ratioP2
40256;SDS011;25977;45.462;9.210;2022-10-16T00:00:44;77.57;;;35.92;;
40256;SDS011;25977;45.462;9.210;2022-10-16T00:03:10;63.45;;;35.75;;
40256;SDS011;25977;45.462;9.210;2022-10-16T00:05:40;67.38;;;37.30;;
40256;SDS011;25977;45.462;9.210;2022-10-16T00:08:08;69.40;;;36.60;;
40256;SDS011;25977;45.462;9.210;2022-10-16T00:10:35;68.90;;;36.60;;
40256;SDS011;25977;45.462;9.210;2022-10-16T00:13:01;68.57;;;35.97;;
40256;SDS011;25977;45.462;9.210;2022-10-16T00:15:28;70.80;;;36.10;;
40256;SDS011;25977;45.462;9.210;2022-10-16T00:17:54;64.65;;;34.97;;
40256;SDS011;25977;45.462;9.210;2022-10-16T00:20:20;72.03;;;37.72;;
40256;SDS011;25977;45.462;9.210;2022-10-16T00:22:45;62.78;;;35.33;;
40256;SDS011;25977;45.462;9.210;2022-10-16T00:25:11;64.43;;;34.33;;
40256;SDS011;25977;45.462;9.210;2022-10-16T00:27:37;63.53;;;33.90;;
40256;SDS011;25977;45.462;9.210;2022-10-16T00:30:03;67.53;;;34.65;;
40256;SDS011;25977;45.462;9.210;2022-10-16T00:32:29;70.35;;;35.85;;
40256;SDS011;25977;45.462;9.210;2022-10-16T00:34:55;70.28;;;35.45;;
40256;SDS011;25977;45.462;9.210;2022-10-16T00:37:20;59.55;;;33.55;;
40256;SDS011;25977;45.462;9.210;2022-10-16T00:39:46;66.63;;;33.67;;
40256;SDS011;25977;45.462;9.210;2022-10-16T00:42:14;60.38;;;31.08;;
40256;SDS011;25977;45.462;9.210;2022-10-16T00:44:43;62.70;;;34.00;;
40256;SDS011;25977;45.462;9.210;2022-10-16T00:47:32;61.63;;;32.90;;
40256;SDS011;25977;45.462;9.210;2022-10-16T00:52:39;62.75;;;32.38;;
40256;SDS011;25977;45.462;9.210;2022-10-16T00:55:09;56.08;;;32.78;;
40256;SDS011;25977;45.462;9.210;2022-10-16T00:57:35;60.47;;;32.72;;
40256;SDS011;25977;45.462;9.210;2022-10-16T01:00:06;62.10;;;32.35;;
40256;SDS011;25977;45.462;9.210;2022-10-16T01:02:34;53.03;;;30.00;;
40256;SDS011;25977;45.462;9.210;2022-10-16T01:05:00;59.55;;;30.98;;
40256;SDS011;25977;45.462;9.210;2022-10-16T01:12:40;56.00;;;30.63;;
40256;SDS011;25977;45.462;9.210;2022-10-16T01:15:29;52.72;;;29.90;;
40256;SDS011;25977;45.462;9.210;2022-10-16T01:20:47;61.58;;;30.17;;
40256;SDS011;25977;45.462;9.210;2022-10-16T01:28:32;56.60;;;31.70;;
40256;SDS011;25977;45.462;9.210;2022-10-16T01:31:03;64.00;;;32.45;;
40256;SDS011;25977;45.462;9.210;2022-10-16T01:33:31;71.90;;;34.33;;
40256;SDS011;25977;45.462;9.210;2022-10-16T01:36:09;60.78;;;32.03;;
40256;SDS011;25977;45.462;9.210;2022-10-16T01:38:41;56.60;;;31.58;;
40256;SDS011;25977;45.462;9.210;2022-10-16T01:41:13;58.20;;;31.40;;
40256;SDS011;25977;45.462;9.210;2022-10-16T01:43:42;58.47;;;32.13;;
40256;SDS011;25977;45.462;9.210;2022-10-16T01:46:13;57.47;;;31.75;;
40256;SDS011;25977;45.462;9.210;2022-10-16T01:48:42;56.40;;;31.30;;
40256;SDS011;25977;45.462;9.210;2022-10-16T01:51:12;62.03;;;30.17;;
40256;SDS011;25977;45.462;9.210;2022-10-16T01:53:40;66.18;;;30.80;;
40256;SDS011;25977;45.462;9.210;2022-10-16T01:56:09;50.13;;;30.88;;
40256;SDS011;25977;45.462;9.210;2022-10-16T01:58:37;53.45;;;30.35;;
40256;SDS011;25977;45.462;9.210;2022-10-16T02:01:10;55.80;;;29.75;;
40256;SDS011;25977;45.462;9.210;2022-10-16T02:03:40;54.83;;;29.88;;
40256;SDS011;25977;45.462;9.210;2022-10-16T02:06:08;55.72;;;30.52;;
40256;SDS011;25977;45.462;9.210;2022-10-16T02:08:34;55.42;;;30.70;;
40256;SDS011;25977;45.462;9.210;2022-10-16T02:11:01;52.30;;;30.73;;
40256;SDS011;25977;45.462;9.210;2022-10-16T02:15:56;55.47;;;30.70;;
40256;SDS011;25977;45.462;9.210;2022-10-16T02:18:22;53.70;;;29.23;;
40256;SDS011;25977;45.462;9.210;2022-10-16T02:26:03;52.65;;;29.30;;
40256;SDS011;25977;45.462;9.210;2022-10-16T02:28:42;49.05;;;27.50;;
40256;SDS011;25977;45.462;9.210;2022-10-16T02:31:14;52.78;;;29.50;;
40256;SDS011;25977;45.462;9.210;2022-10-16T02:33:43;52.30;;;29.20;;
40256;SDS011;25977;45.462;9.210;2022-10-16T02:36:11;52.05;;;30.90;;
40256;SDS011;25977;45.462;9.210;2022-10-16T02:38:37;52.60;;;29.45;;
40256;SDS011;25977;45.462;9.210;2022-10-16T02:41:04;49.47;;;27.60;;
40256;SDS011;25977;45.462;9.210;2022-10-16T02:43:31;56.08;;;29.63;;
40256;SDS011;25977;45.462;9.210;2022-10-16T02:45:58;51.22;;;29.58;;
40256;SDS011;25977;45.462;9.210;2022-10-16T02:48:25;49.42;;;27.08;;
40256;SDS011;25977;45.462;9.210;2022-10-16T02:50:50;55.58;;;29.00;;
40256;SDS011;25977;45.462;9.210;2022-10-16T02:53:16;47.40;;;29.23;;
40256;SDS011;25977;45.462;9.210;2022-10-16T02:55:42;45.97;;;28.08;;
40256;SDS011;25977;45.462;9.210;2022-10-16T02:58:08;48.80;;;28.83;;
40256;SDS011;25977;45.462;9.210;2022-10-16T03:00:34;47.45;;;27.52;;
40256;SDS011;25977;45.462;9.210;2022-10-16T03:03:00;47.30;;;26.80;;
40256;SDS011;25977;45.462;9.210;2022-10-16T03:05:25;47.55;;;28.63;;
40256;SDS011;25977;45.462;9.210;2022-10-16T03:07:51;47.50;;;28.58;;
40256;SDS011;25977;45.462;9.210;2022-10-16T03:10:17;45.58;;;28.55;;
40256;SDS011;25977;45.462;9.210;2022-10-16T03:12:43;47.22;;;28.15;;
40256;SDS011;25977;45.462;9.210;2022-10-16T03:15:09;45.25;;;27.33;;
40256;SDS011;25977;45.462;9.210;2022-10-16T03:17:35;48.20;;;28.25;;
40256;SDS011;25977;45.462;9.210;2022-10-16T03:20:01;47.63;;;27.52;;
40256;SDS011;25977;45.462;9.210;2022-10-16T03:22:27;49.08;;;28.45;;
40256;SDS011;25977;45.462;9.210;2022-10-16T03:24:52;47.85;;;28.42;;
40256;SDS011;25977;45.462;9.210;2022-10-16T03:27:18;44.50;;;27.00;;
40256;SDS011;25977;45.462;9.210;2022-10-16T03:29:44;55.67;;;29.17;;
40256;SDS011;25977;45.462;9.210;2022-10-16T03:32:09;47.95;;;27.00;;
40256;SDS011;25977;45.462;9.210;2022-10-16T03:34:35;50.58;;;29.48;;
40256;SDS011;25977;45.462;9.210;2022-10-16T03:37:01;49.67;;;27.27;;
40256;SDS011;25977;45.462;9.210;2022-10-16T03:39:26;48.63;;;28.17;;
40256;SDS011;25977;45.462;9.210;2022-10-16T03:41:52;50.00;;;27.67;;
40256;SDS011;25977;45.462;9.210;2022-10-16T03:44:18;53.38;;;30.08;;
40256;SDS011;25977;45.462;9.210;2022-10-16T03:46:43;49.70;;;27.02;;
40256;SDS011;25977;45.462;9.210;2022-10-16T03:49:09;54.63;;;29.90;;
40256;SDS011;25977;45.462;9.210;2022-10-16T03:51:35;53.45;;;28.40;;
40256;SDS011;25977;45.462;9.210;2022-10-16T03:54:01;50.03;;;28.00;;
40256;SDS011;25977;45.462;9.210;2022-10-16T03:56:26;51.55;;;29.08;;
40256;SDS011;25977;45.462;9.210;2022-10-16T03:58:52;52.10;;;28.73;;
40256;SDS011;25977;45.462;9.210;2022-10-16T04:01:18;53.53;;;28.38;;
40256;SDS011;25977;45.462;9.210;2022-10-16T04:03:43;53.97;;;29.33;;
40256;SDS011;25977;45.462;9.210;2022-10-16T04:06:09;50.53;;;28.23;;
40256;SDS011;25977;45.462;9.210;2022-10-16T04:08:35;52.08;;;28.73;;
40256;SDS011;25977;45.462;9.210;2022-10-16T04:11:02;49.53;;;29.08;;
40256;SDS011;25977;45.462;9.210;2022-10-16T04:13:28;46.20;;;26.52;;
40256;SDS011;25977;45.462;9.210;2022-10-16T04:15:54;51.40;;;28.67;;
40256;SDS011;25977;45.462;9.210;2022-10-16T04:18:20;42.53;;;26.48;;
40256;SDS011;25977;45.462;9.210;2022-10-16T04:20:46;53.38;;;28.20;;
40256;SDS011;25977;45.462;9.210;2022-10-16T04:23:12;51.55;;;27.95;;
40256;SDS011;25977;45.462;9.210;2022-10-16T04:25:37;45.40;;;27.70;;
40256;SDS011;25977;45.462;9.210;2022-10-16T04:28:03;44.35;;;26.67;;
40256;SDS011;25977;45.462;9.210;2022-10-16T04:30:29;47.25;;;27.58;;
40256;SDS011;25977;45.462;9.210;2022-10-16T04:32:54;48.40;;;27.48;;
40256;SDS011;25977;45.462;9.210;2022-10-16T04:35:21;44.58;;;26.80;;
40256;SDS011;25977;45.462;9.210;2022-10-16T04:37:47;46.05;;;27.55;;
40256;SDS011;25977;45.462;9.210;2022-10-16T04:40:13;47.67;;;27.02;;
40256;SDS011;25977;45.462;9.210;2022-10-16T04:42:39;44.58;;;26.83;;
40256;SDS011;25977;45.462;9.210;2022-10-16T04:45:06;45.75;;;27.63;;
40256;SDS011;25977;45.462;9.210;2022-10-16T04:47:33;47.83;;;27.42;;
40256;SDS011;25977;45.462;9.210;2022-10-16T04:49:59;47.17;;;26.73;;
40256;SDS011;25977;45.462;9.210;2022-10-16T04:52:26;50.13;;;28.00;;
40256;SDS011;25977;45.462;9.210;2022-10-16T04:54:52;54.30;;;29.60;;
40256;SDS011;25977;45.462;9.210;2022-10-16T04:57:19;49.95;;;28.52;;
40256;SDS011;25977;45.462;9.210;2022-10-16T04:59:44;48.15;;;28.38;;
40256;SDS011;25977;45.462;9.210;2022-10-16T05:02:10;47.42;;;28.58;;
40256;SDS011;25977;45.462;9.210;2022-10-16T05:04:36;47.72;;;28.45;;
40256;SDS011;25977;45.462;9.210;2022-10-16T05:07:01;43.03;;;26.98;;
40256;SDS011;25977;45.462;9.210;2022-10-16T05:09:27;49.88;;;27.58;;
40256;SDS011;25977;45.462;9.210;2022-10-16T05:11:53;45.38;;;27.10;;
40256;SDS011;25977;45.462;9.210;2022-10-16T05:14:19;48.20;;;28.35;;
40256;SDS011;25977;45.462;9.210;2022-10-16T05:16:44;49.85;;;27.48;;
40256;SDS011;25977;45.462;9.210;2022-10-16T05:19:10;47.42;;;26.60;;
40256;SDS011;25977;45.462;9.210;2022-10-16T05:21:36;42.67;;;25.00;;
40256;SDS011;25977;45.462;9.210;2022-10-16T05:24:02;52.30;;;27.63;;
40256;SDS011;25977;45.462;9.210;2022-10-16T05:26:29;44.03;;;26.95;;
40256;SDS011;25977;45.462;9.210;2022-10-16T05:28:54;50.42;;;27.35;;
40256;SDS011;25977;45.462;9.210;2022-10-16T05:31:20;56.80;;;28.23;;
40256;SDS011;25977;45.462;9.210;2022-10-16T05:33:46;47.85;;;24.63;;
40256;SDS011;25977;45.462;9.210;2022-10-16T05:36:11;40.58;;;25.52;;
40256;SDS011;25977;45.462;9.210;2022-10-16T05:38:38;44.40;;;25.67;;
40256;SDS011;25977;45.462;9.210;2022-10-16T05:41:04;40.03;;;23.48;;
40256;SDS011;25977;45.462;9.210;2022-10-16T05:43:30;46.92;;;24.70;;
40256;SDS011;25977;45.462;9.210;2022-10-16T05:45:58;42.13;;;25.92;;
40256;SDS011;25977;45.462;9.210;2022-10-16T05:48:25;42.65;;;26.67;;
40256;SDS011;25977;45.462;9.210;2022-10-16T05:51:02;45.65;;;26.23;;
40256;SDS011;25977;45.462;9.210;2022-10-16T05:53:30;40.60;;;23.95;;
40256;SDS011;25977;45.462;9.210;2022-10-16T05:55:57;43.42;;;25.83;;
40256;SDS011;25977;45.462;9.210;2022-10-16T05:58:23;46.13;;;24.92;;
40256;SDS011;25977;45.462;9.210;2022-10-16T06:00:56;43.20;;;25.95;;
40256;SDS011;25977;45.462;9.210;2022-10-16T06:03:27;43.35;;;24.45;;
40256;SDS011;25977;45.462;9.210;2022-10-16T06:05:53;38.42;;;24.02;;
40256;SDS011;25977;45.462;9.210;2022-10-16T06:08:20;37.55;;;23.90;;
40256;SDS011;25977;45.462;9.210;2022-10-16T06:10:47;44.78;;;25.00;;
40256;SDS011;25977;45.462;9.210;2022-10-16T06:13:13;41.05;;;24.20;;
40256;SDS011;25977;45.462;9.210;2022-10-16T06:15:40;43.50;;;24.70;;
40256;SDS011;25977;45.462;9.210;2022-10-16T06:18:08;39.22;;;24.35;;
40256;SDS011;25977;45.462;9.210;2022-10-16T06:20:35;44.55;;;25.75;;
40256;SDS011;25977;45.462;9.210;2022-10-16T06:23:01;41.35;;;25.55;;
40256;SDS011;25977;45.462;9.210;2022-10-16T06:25:27;34.90;;;22.70;;
40256;SDS011;25977;45.462;9.210;2022-10-16T06:27:52;36.05;;;22.65;;
40256;SDS011;25977;45.462;9.210;2022-10-16T06:30:18;36.47;;;23.63;;
40256;SDS011;25977;45.462;9.210;2022-10-16T06:32:44;38.45;;;21.70;;
40256;SDS011;25977;45.462;9.210;2022-10-16T06:35:09;38.20;;;22.55;;
40256;SDS011;25977;45.462;9.210;2022-10-16T06:37:35;37.42;;;22.77;;
40256;SDS011;25977;45.462;9.210;2022-10-16T06:40:01;35.17;;;21.90;;
40256;SDS011;25977;45.462;9.210;2022-10-16T06:42:29;41.47;;;23.42;;
40256;SDS011;25977;45.462;9.210;2022-10-16T06:44:55;33.60;;;21.42;;
40256;SDS011;25977;45.462;9.210;2022-10-16T06:47:21;32.20;;;21.40;;
40256;SDS011;25977;45.462;9.210;2022-10-16T06:49:47;37.58;;;23.20;;
40256;SDS011;25977;45.462;9.210;2022-10-16T06:52:12;35.03;;;20.73;;
40256;SDS011;25977;45.462;9.210;2022-10-16T06:54:38;40.17;;;22.25;;
40256;SDS011;25977;45.462;9.210;2022-10-16T06:57:04;35.60;;;22.00;;
40256;SDS011;25977;45.462;9.210;2022-10-16T06:59:30;36.58;;;22.25;;
40256;SDS011;25977;45.462;9.210;2022-10-16T07:01:55;34.92;;;21.80;;
40256;SDS011;25977;45.462;9.210;2022-10-16T07:04:21;37.17;;;21.95;;
40256;SDS011;25977;45.462;9.210;2022-10-16T07:06:47;36.80;;;22.80;;
40256;SDS011;25977;45.462;9.210;2022-10-16T07:09:12;39.60;;;22.88;;
40256;SDS011;25977;45.462;9.210;2022-10-16T07:11:38;38.72;;;21.23;;
40256;SDS011;25977;45.462;9.210;2022-10-16T07:14:08;36.55;;;21.38;;
40256;SDS011;25977;45.462;9.210;2022-10-16T07:16:40;37.42;;;22.55;;
40256;SDS011;25977;45.462;9.210;2022-10-16T07:19:06;34.95;;;22.25;;
40256;SDS011;25977;45.462;9.210;2022-10-16T07:21:33;42.63;;;22.85;;
40256;SDS011;25977;45.462;9.210;2022-10-16T07:24:04;37.92;;;23.20;;
40256;SDS011;25977;45.462;9.210;2022-10-16T07:26:32;40.40;;;22.70;;
40256;SDS011;25977;45.462;9.210;2022-10-16T07:28:59;38.25;;;22.20;;
40256;SDS011;25977;45.462;9.210;2022-10-16T07:31:26;40.00;;;24.85;;
40256;SDS011;25977;45.462;9.210;2022-10-16T07:33:52;48.55;;;26.30;;
40256;SDS011;25977;45.462;9.210;2022-10-16T07:36:19;43.70;;;25.30;;
40256;SDS011;25977;45.462;9.210;2022-10-16T07:38:45;40.58;;;24.98;;
40256;SDS011;25977;45.462;9.210;2022-10-16T07:41:13;40.05;;;25.50;;
40256;SDS011;25977;45.462;9.210;2022-10-16T07:43:40;42.17;;;24.10;;
40256;SDS011;25977;45.462;9.210;2022-10-16T07:46:11;41.03;;;23.65;;
40256;SDS011;25977;45.462;9.210;2022-10-16T07:48:37;37.33;;;23.35;;
40256;SDS011;25977;45.462;9.210;2022-10-16T07:51:03;39.13;;;23.10;;
40256;SDS011;25977;45.462;9.210;2022-10-16T07:53:30;42.13;;;23.67;;
40256;SDS011;25977;45.462;9.210;2022-10-16T07:55:59;37.75;;;22.90;;
40256;SDS011;25977;45.462;9.210;2022-10-16T07:58:26;41.25;;;23.20;;
40256;SDS011;25977;45.462;9.210;2022-10-16T08:00:53;39.72;;;23.15;;
40256;SDS011;25977;45.462;9.210;2022-10-16T08:03:19;41.28;;;24.65;;
40256;SDS011;25977;45.462;9.210;2022-10-16T08:05:45;39.33;;;23.40;;
40256;SDS011;25977;45.462;9.210;2022-10-16T08:08:12;43.72;;;24.23;;
40256;SDS011;25977;45.462;9.210;2022-10-16T08:10:39;47.42;;;25.05;;
40256;SDS011;25977;45.462;9.210;2022-10-16T08:13:05;46.40;;;26.38;;
40256;SDS011;25977;45.462;9.210;2022-10-16T08:15:31;45.00;;;27.02;;
40256;SDS011;25977;45.462;9.210;2022-10-16T08:18:01;48.30;;;26.33;;
40256;SDS011;25977;45.462;9.210;2022-10-16T08:20:28;52.33;;;26.00;;
40256;SDS011;25977;45.462;9.210;2022-10-16T08:22:54;46.10;;;26.17;;
40256;SDS011;25977;45.462;9.210;2022-10-16T08:25:21;45.85;;;25.30;;
40256;SDS011;25977;45.462;9.210;2022-10-16T08:27:47;50.15;;;26.13;;
40256;SDS011;25977;45.462;9.210;2022-10-16T08:30:13;45.80;;;25.83;;
40256;SDS011;25977;45.462;9.210;2022-10-16T08:32:39;46.58;;;24.60;;
40256;SDS011;25977;45.462;9.210;2022-10-16T08:35:07;44.30;;;25.70;;
40256;SDS011;25977;45.462;9.210;2022-10-16T08:37:37;44.75;;;25.10;;
40256;SDS011;25977;45.462;9.210;2022-10-16T08:40:04;53.67;;;29.13;;
40256;SDS011;25977;45.462;9.210;2022-10-16T08:50:10;57.80;;;30.27;;
40256;SDS011;25977;45.462;9.210;2022-10-16T08:52:40;58.30;;;30.17;;
40256;SDS011;25977;45.462;9.210;2022-10-16T08:55:16;58.40;;;31.95;;
40256;SDS011;25977;45.462;9.210;2022-10-16T08:57:58;55.65;;;29.63;;
40256;SDS011;25977;45.462;9.210;2022-10-16T09:00:25;57.17;;;32.08;;
40256;SDS011;25977;45.462;9.210;2022-10-16T09:08:46;59.17;;;31.33;;
40256;SDS011;25977;45.462;9.210;2022-10-16T09:20:12;52.85;;;30.23;;
40256;SDS011;25977;45.462;9.210;2022-10-16T09:25:36;49.45;;;29.65;;
40256;SDS011;25977;45.462;9.210;2022-10-16T09:28:07;63.85;;;29.70;;
40256;SDS011;25977;45.462;9.210;2022-10-16T09:30:35;63.88;;;32.90;;
40256;SDS011;25977;45.462;9.210;2022-10-16T09:33:02;60.55;;;32.30;;
40256;SDS011;25977;45.462;9.210;2022-10-16T09:38:00;60.28;;;33.08;;
40256;SDS011;25977;45.462;9.210;2022-10-16T09:40:28;64.32;;;34.63;;
40256;SDS011;25977;45.462;9.210;2022-10-16T09:43:46;62.67;;;33.22;;
40256;SDS011;25977;45.462;9.210;2022-10-16T09:46:03;58.63;;;32.50;;
40256;SDS011;25977;45.462;9.210;2022-10-16T09:51:05;57.08;;;33.00;;
40256;SDS011;25977;45.462;9.210;2022-10-16T09:53:41;59.83;;;30.17;;
40256;SDS011;25977;45.462;9.210;2022-10-16T09:56:09;59.17;;;32.00;;
40256;SDS011;25977;45.462;9.210;2022-10-16T09:58:41;66.20;;;34.28;;
40256;SDS011;25977;45.462;9.210;2022-10-16T10:01:12;61.40;;;30.92;;
40256;SDS011;25977;45.462;9.210;2022-10-16T10:03:41;60.17;;;30.13;;
40256;SDS011;25977;45.462;9.210;2022-10-16T10:06:21;72.18;;;32.80;;
40256;SDS011;25977;45.462;9.210;2022-10-16T10:08:55;61.90;;;33.22;;
40256;SDS011;25977;45.462;9.210;2022-10-16T10:11:39;64.65;;;33.92;;
40256;SDS011;25977;45.462;9.210;2022-10-16T10:16:51;63.60;;;31.65;;
40256;SDS011;25977;45.462;9.210;2022-10-16T10:19:26;67.38;;;33.08;;
40256;SDS011;25977;45.462;9.210;2022-10-16T10:21:52;62.60;;;34.40;;
40256;SDS011;25977;45.462;9.210;2022-10-16T10:24:18;60.03;;;32.92;;
40256;SDS011;25977;45.462;9.210;2022-10-16T10:26:54;61.65;;;35.13;;
40256;SDS011;25977;45.462;9.210;2022-10-16T10:32:17;63.70;;;35.08;;
40256;SDS011;25977;45.462;9.210;2022-10-16T10:35:02;61.03;;;32.28;;
40256;SDS011;25977;45.462;9.210;2022-10-16T10:42:57;70.88;;;35.00;;
40256;SDS011;25977;45.462;9.210;2022-10-16T10:45:46;67.15;;;32.83;;
40256;SDS011;25977;45.462;9.210;2022-10-16T10:53:47;64.85;;;33.58;;
40256;SDS011;25977;45.462;9.210;2022-10-16T11:04:49;68.13;;;34.83;;
40256;SDS011;25977;45.462;9.210;2022-10-16T11:07:43;67.35;;;34.28;;
40256;SDS011;25977;45.462;9.210;2022-10-16T11:10:25;65.53;;;35.20;;
40256;SDS011;25977;45.462;9.210;2022-10-16T11:12:59;69.40;;;34.75;;
40256;SDS011;25977;45.462;9.210;2022-10-16T11:15:40;72.35;;;37.67;;
40256;SDS011;25977;45.462;9.210;2022-10-16T11:18:13;72.32;;;35.90;;
40256;SDS011;25977;45.462;9.210;2022-10-16T11:23:26;70.10;;;34.08;;
40256;SDS011;25977;45.462;9.210;2022-10-16T11:25:58;64.68;;;34.35;;
40256;SDS011;25977;45.462;9.210;2022-10-16T11:28:34;61.97;;;34.28;;
40256;SDS011;25977;45.462;9.210;2022-10-16T11:36:47;66.65;;;34.38;;
40256;SDS011;25977;45.462;9.210;2022-10-16T11:39:29;65.68;;;32.78;;
40256;SDS011;25977;45.462;9.210;2022-10-16T11:41:59;62.28;;;33.58;;
40256;SDS011;25977;45.462;9.210;2022-10-16T11:47:48;68.97;;;34.03;;
40256;SDS011;25977;45.462;9.210;2022-10-16T11:50:38;68.70;;;35.53;;
40256;SDS011;25977;45.462;9.210;2022-10-16T11:55:36;61.63;;;33.83;;
40256;SDS011;25977;45.462;9.210;2022-10-16T11:58:05;62.97;;;34.22;;
40256;SDS011;25977;45.462;9.210;2022-10-16T12:00:39;62.45;;;35.42;;
40256;SDS011;25977;45.462;9.210;2022-10-16T12:03:20;65.05;;;34.58;;
40256;SDS011;25977;45.462;9.210;2022-10-16T12:08:43;71.53;;;38.35;;
40256;SDS011;25977;45.462;9.210;2022-10-16T12:11:31;67.20;;;36.95;;
40256;SDS011;25977;45.462;9.210;2022-10-16T12:14:07;59.33;;;33.13;;
40256;SDS011;25977;45.462;9.210;2022-10-16T12:16:33;69.78;;;36.45;;
40256;SDS011;25977;45.462;9.210;2022-10-16T12:19:07;71.45;;;36.53;;
40256;SDS011;25977;45.462;9.210;2022-10-16T12:21:36;63.95;;;34.17;;
40256;SDS011;25977;45.462;9.210;2022-10-16T12:24:03;66.55;;;35.92;;
40256;SDS011;25977;45.462;9.210;2022-10-16T12:26:31;66.30;;;37.08;;
40256;SDS011;25977;45.462;9.210;2022-10-16T12:29:11;65.00;;;36.47;;
40256;SDS011;25977;45.462;9.210;2022-10-16T12:31:46;62.58;;;35.67;;
40256;SDS011;25977;45.462;9.210;2022-10-16T12:34:19;73.43;;;36.90;;
40256;SDS011;25977;45.462;9.210;2022-10-16T12:36:55;59.50;;;33.65;;
40256;SDS011;25977;45.462;9.210;2022-10-16T12:39:32;63.85;;;34.08;;
40256;SDS011;25977;45.462;9.210;2022-10-16T12:44:46;69.28;;;35.42;;
40256;SDS011;25977;45.462;9.210;2022-10-16T12:47:22;64.55;;;36.78;;
40256;SDS011;25977;45.462;9.210;2022-10-16T12:49:57;72.88;;;36.03;;
40256;SDS011;25977;45.462;9.210;2022-10-16T12:52:44;59.88;;;34.53;;
40256;SDS011;25977;45.462;9.210;2022-10-16T12:55:16;68.70;;;35.08;;
40256;SDS011;25977;45.462;9.210;2022-10-16T12:58:00;63.13;;;33.30;;
40256;SDS011;25977;45.462;9.210;2022-10-16T13:03:40;60.97;;;33.25;;
40256;SDS011;25977;45.462;9.210;2022-10-16T13:06:27;63.80;;;34.43;;
40256;SDS011;25977;45.462;9.210;2022-10-16T13:14:36;63.80;;;34.05;;
40256;SDS011;25977;45.462;9.210;2022-10-16T13:23:05;64.43;;;32.88;;
40256;SDS011;25977;45.462;9.210;2022-10-16T13:25:56;62.47;;;32.83;;
40256;SDS011;25977;45.462;9.210;2022-10-16T13:28:29;59.63;;;32.55;;
40256;SDS011;25977;45.462;9.210;2022-10-16T13:36:05;49.03;;;28.05;;
40256;SDS011;25977;45.462;9.210;2022-10-16T13:38:34;41.70;;;25.38;;
40256;SDS011;25977;45.462;9.210;2022-10-16T13:41:02;51.08;;;28.88;;
40256;SDS011;25977;45.462;9.210;2022-10-16T13:43:42;56.85;;;31.75;;
40256;SDS011;25977;45.462;9.210;2022-10-16T13:46:15;47.67;;;28.48;;
40256;SDS011;25977;45.462;9.210;2022-10-16T13:51:24;58.60;;;31.98;;
40256;SDS011;25977;45.462;9.210;2022-10-16T13:53:50;53.67;;;30.55;;
40256;SDS011;25977;45.462;9.210;2022-10-16T13:56:17;49.50;;;30.33;;
40256;SDS011;25977;45.462;9.210;2022-10-16T13:58:45;57.05;;;31.20;;
40256;SDS011;25977;45.462;9.210;2022-10-16T14:01:25;54.00;;;30.67;;
40256;SDS011;25977;45.462;9.210;2022-10-16T14:03:59;56.13;;;31.20;;
40256;SDS011;25977;45.462;9.210;2022-10-16T14:06:30;57.95;;;30.52;;
40256;SDS011;25977;45.462;9.210;2022-10-16T14:09:02;56.08;;;32.17;;
40256;SDS011;25977;45.462;9.210;2022-10-16T14:11:31;59.28;;;31.65;;
40256;SDS011;25977;45.462;9.210;2022-10-16T14:13:58;54.63;;;31.63;;
40256;SDS011;25977;45.462;9.210;2022-10-16T14:16:26;50.63;;;30.23;;
40256;SDS011;25977;45.462;9.210;2022-10-16T14:19:01;56.78;;;32.35;;
40256;SDS011;25977;45.462;9.210;2022-10-16T14:21:29;49.40;;;29.20;;
40256;SDS011;25977;45.462;9.210;2022-10-16T14:23:55;58.78;;;30.67;;
40256;SDS011;25977;45.462;9.210;2022-10-16T14:26:26;55.35;;;30.25;;
40256;SDS011;25977;45.462;9.210;2022-10-16T14:29:15;49.83;;;30.23;;
40256;SDS011;25977;45.462;9.210;2022-10-16T14:32:05;57.80;;;30.77;;
40256;SDS011;25977;45.462;9.210;2022-10-16T14:34:35;47.05;;;28.27;;
40256;SDS011;25977;45.462;9.210;2022-10-16T14:37:26;56.70;;;31.25;;
40256;SDS011;25977;45.462;9.210;2022-10-16T14:39:54;50.60;;;29.38;;
40256;SDS011;25977;45.462;9.210;2022-10-16T14:42:21;47.30;;;27.77;;
40256;SDS011;25977;45.462;9.210;2022-10-16T14:44:53;51.40;;;29.50;;
40256;SDS011;25977;45.462;9.210;2022-10-16T14:47:23;53.05;;;31.55;;
40256;SDS011;25977;45.462;9.210;2022-10-16T14:49:51;50.00;;;27.10;;
40256;SDS011;25977;45.462;9.210;2022-10-16T14:52:20;49.55;;;27.52;;
40256;SDS011;25977;45.462;9.210;2022-10-16T14:54:49;49.47;;;29.20;;
40256;SDS011;25977;45.462;9.210;2022-10-16T14:57:19;50.22;;;29.17;;
40256;SDS011;25977;45.462;9.210;2022-10-16T14:59:47;48.92;;;27.25;;
40256;SDS011;25977;45.462;9.210;2022-10-16T15:02:27;39.50;;;24.42;;
40256;SDS011;25977;45.462;9.210;2022-10-16T15:04:55;44.47;;;26.50;;
40256;SDS011;25977;45.462;9.210;2022-10-16T15:07:21;42.60;;;27.00;;
40256;SDS011;25977;45.462;9.210;2022-10-16T15:09:47;46.03;;;27.85;;
40256;SDS011;25977;45.462;9.210;2022-10-16T15:12:13;45.55;;;27.55;;
40256;SDS011;25977;45.462;9.210;2022-10-16T15:14:39;43.92;;;25.85;;
40256;SDS011;25977;45.462;9.210;2022-10-16T15:17:05;47.08;;;26.60;;
40256;SDS011;25977;45.462;9.210;2022-10-16T15:19:33;47.78;;;27.52;;
40256;SDS011;25977;45.462;9.210;2022-10-16T15:21:59;48.92;;;28.25;;
40256;SDS011;25977;45.462;9.210;2022-10-16T15:24:25;50.50;;;28.42;;
40256;SDS011;25977;45.462;9.210;2022-10-16T15:26:50;52.55;;;30.25;;
40256;SDS011;25977;45.462;9.210;2022-10-16T15:29:16;45.60;;;27.83;;
40256;SDS011;25977;45.462;9.210;2022-10-16T15:31:42;50.58;;;29.25;;
40256;SDS011;25977;45.462;9.210;2022-10-16T15:34:08;56.53;;;32.80;;
40256;SDS011;25977;45.462;9.210;2022-10-16T15:36:36;51.88;;;29.38;;
40256;SDS011;25977;45.462;9.210;2022-10-16T15:39:12;60.58;;;31.02;;
40256;SDS011;25977;45.462;9.210;2022-10-16T15:41:41;54.13;;;30.15;;
40256;SDS011;25977;45.462;9.210;2022-10-16T15:44:07;58.03;;;30.98;;
40256;SDS011;25977;45.462;9.210;2022-10-16T15:46:33;48.33;;;29.35;;
40256;SDS011;25977;45.462;9.210;2022-10-16T15:48:59;52.88;;;29.98;;
40256;SDS011;25977;45.462;9.210;2022-10-16T15:51:26;48.70;;;28.67;;
40256;SDS011;25977;45.462;9.210;2022-10-16T15:53:55;50.78;;;30.63;;
40256;SDS011;25977;45.462;9.210;2022-10-16T15:56:22;53.60;;;29.70;;
40256;SDS011;25977;45.462;9.210;2022-10-16T15:58:50;56.00;;;30.48;;
40256;SDS011;25977;45.462;9.210;2022-10-16T16:01:16;56.58;;;30.88;;
40256;SDS011;25977;45.462;9.210;2022-10-16T16:03:42;52.80;;;30.35;;
40256;SDS011;25977;45.462;9.210;2022-10-16T16:06:10;47.28;;;28.95;;
40256;SDS011;25977;45.462;9.210;2022-10-16T16:08:37;52.45;;;29.50;;
40256;SDS011;25977;45.462;9.210;2022-10-16T16:13:31;46.13;;;28.67;;
40256;SDS011;25977;45.462;9.210;2022-10-16T16:15:57;52.00;;;31.20;;
40256;SDS011;25977;45.462;9.210;2022-10-16T16:18:23;51.50;;;29.23;;
40256;SDS011;25977;45.462;9.210;2022-10-16T16:20:50;54.60;;;31.52;;
40256;SDS011;25977;45.462;9.210;2022-10-16T16:23:16;48.53;;;28.05;;
40256;SDS011;25977;45.462;9.210;2022-10-16T16:25:41;51.28;;;30.08;;
40256;SDS011;25977;45.462;9.210;2022-10-16T16:28:07;53.05;;;29.98;;
40256;SDS011;25977;45.462;9.210;2022-10-16T16:30:35;52.38;;;29.77;;
40256;SDS011;25977;45.462;9.210;2022-10-16T16:33:02;54.25;;;31.88;;
40256;SDS011;25977;45.462;9.210;2022-10-16T16:35:28;49.60;;;30.55;;